AirNav   Air Wisconsin Up To $57,000 Bonus
 
 473 users online  

S50 Auburn Municipal Airport
Auburn, Washington, USA

GOING TO AUBURN?


FAA INFORMATION EFFECTIVE 14 JULY 2022

Location

FAA Identifier: S50
Lat/Long: 47-19-39.4495N 122-13-35.9584W
47-19.657492N 122-13.599307W
47.3276249,-122.2266551
(estimated)
Elevation: 63 ft. / 19.2 m (surveyed)
Variation: 18E (2005)
From city: 1 mile N of AUBURN, WA
Time zone: UTC -7 (UTC -8 during Standard Time)
Zip code: 98002

Airport Operations

Airport use: Open to the public
Activation date: 03/1970
Control tower: no
ARTCC: SEATTLE CENTER
FSS: SEATTLE FLIGHT SERVICE STATION
NOTAMs facility: SEA (NOTAM-D service available)
Attendance: MON-FRI 0800-1700
Wind indicator: lighted
Segmented circle: yes
Lights: ACTVT REIL RWYS 16 & 34 7 CLICKS; MIRL RWY 16/34 - CTAF. VASI RWY 16 & 34 OPR CONSLY.
Beacon: white-green (lighted land airport)
Operates sunset to sunrise.

Airport Communications

CTAF/UNICOM: 122.8
SEATTLE APPROACH: 123.85 [0530-0000]
SEATTLE DEPARTURE: 123.85 [0530-0000]
CLEARANCE DELIVERY: 123.85
WX ASOS at SEA (8 nm NW): PHONE 206-214-2592
WX ASOS at RNT (10 nm N): 126.95 (425-255-6080)
WX ASOS at BFI (13 nm N): PHONE 206-658-6435
WX AWOS-3 at PLU (14 nm S): 128.575 (253-848-2748)
WX ASOS at TIW (15 nm W): PHONE 253-858-6507
WX ASOS at TCM (15 nm SW): PHONE 253-982-3434

Nearby radio navigation aids

VOR radial/distance  VOR name  Freq  Var
SEAr133/7.3SEATTLE VORTAC116.8019E
OLMr033/34.9OLYMPIA VORTAC113.4019E
PAEr157/35.6PAINE VOR/DME110.6020E

Airport Services

Fuel available: 100LL JET-A
100LL:100LL AVBL 24 HRS - CREDIT CARD SELF SVC. JET A AVBL MON-FRI 0700-1600 (LOCAL) FOR SVC CALL (206)-767-5290.
Parking: hangars and tiedowns
Airframe service: MAJOR
Powerplant service: MAJOR
Bottled oxygen: NONE
Bulk oxygen: NONE

Runway Information

Runway 16/34

Dimensions: 3842 x 75 ft. / 1171 x 23 m
Surface: asphalt, in good condition
Weight bearing capacity: 
Single wheel: 12.5
Runway edge lights: medium intensity
RUNWAY 16  RUNWAY 34
Latitude: 47-19.973453N47-19.341530N
Longitude: 122-13.602715W122-13.595897W
Elevation: 55.6 ft.62.7 ft.
Traffic pattern: rightleft
Runway heading: 162 magnetic, 180 true342 magnetic, 360 true
Displaced threshold: 200 ft.241 ft.
Markings: basic, in good conditionbasic, in good condition
Visual slope indicator: 4-box VASI on right (4.50 degrees glide path)4-box VASI on left (4.00 degrees glide path)
Runway end identifier lights: yesyes
Touchdown point: yes, no lightsyes, no lights
Obstructions: 25 ft. bldg, lighted, 700 ft. from runway, 88 ft. right of centerline, 20:1 slope to clear
RWY 16 E-W HIGH VOLTAGE TSMN LINE, 80' AGL LCTD 1804' N OF RWY 16 THR AT 20:1.
18 ft. other, 442 ft. from runway, 13:1 slope to clear
RWY 34 CTLG OBS PARKING LOT LIGHTS.

Airport Ownership and Management from official FAA records

Ownership: Publicly-owned
Owner: CITY OF AUBURN
25 WEST MAIN STREET
AUBURN, WA 98001
Phone (253) 931-3010
Manager: TIM MENSONIDES
2143 E ST. NE, SUITE #1
AUBURN, WA 98002
Phone (253) 333-6821

Airport Operational Statistics

Aircraft based on the field: 264
Single engine airplanes: 240
Multi engine airplanes: 15
Helicopters: 7
Gliders airplanes: 2
    
Aircraft operations: avg 383/day *
61% local general aviation
34% transient general aviation
4% air taxi
<1% military
* for 12-month period ending 31 December 2019

Additional Remarks

ULTRALIGHTS PROHIBITED.
PLAN APCHS AND DEPS TO AVOID EXTREMELY NOISE SENSITIVE RESIDENTIAL AREA E OF THE ARPT.
FOR CD CTC SEATTLE APCH AT 206-214-4723.
BE ALERT, WILDLIFE ON AND INVOF ARPT, BIRDS PRSNT DAWN AND DUSK, WINT WX OPS AND RPT MON-FRI 0800-1700.
CALM WND RWY: 34
NO LOITERING ON RWY WHEN 2 OR MORE ACFT ARE PRSNT IN THE TFC PAT.

Instrument Procedures

NOTE: All procedures below are presented as PDF files. If you need a reader for these files, you should download the free Adobe Reader.

NOT FOR NAVIGATION. Please procure official charts for flight.
FAA instrument procedures published for use from 14 July 2022 at 0901Z to 11 August 2022 at 0900z.

 
IAPs - Instrument Approach Procedures
RNAV (GPS)-A   download (256KB)
 
BLAKO ONE (OBSTACLE) (RNAV)   download (168KB)
NOTE: Special Take-Off Minimums/Departure Procedures apply   download (339KB)

Other nearby airports with instrument procedures:

KSEA - Seattle-Tacoma International Airport (8 nm NW)
KRNT - Renton Municipal Airport (10 nm N)
KBFI - Boeing Field/King County International Airport (13 nm N)
KPLU - Pierce County Airport - Thun Field (14 nm S)
KTIW - Tacoma Narrows Airport (15 nm W)
KTCM - McChord Field Airport (Joint Base Lewis-McChord) (15 nm SW)
 
Loc | Ops | Rwys | IFR | FBO | Links
Com | Nav | Svcs | Stats | Notes
Area around S50 (Auburn Municipal Airport)
 
Road maps at: MapQuest Bing Google
 
Aerial photo
WARNING: Photo may not be current or correct
Aerial photo of S50 (Auburn Municipal Airport)
Photo courtesy of Auburn Municipal Airport staff
Taken in July 2020
looking north.

Do you have a better or more recent aerial photo of Auburn Municipal Airport that you would like to share? If so, please send us your photo.

 
Sectional chart

 
Airport diagram
CAUTION: Diagram may not be current
Diagram of S50 (Auburn Municipal Airport)
 
Airport distance calculator
Flying to Auburn Municipal Airport? Find the distance to fly.

From to S50

Sunrise and sunset
Times for 11-Aug-2022
 Local
(UTC-7)
 Zulu
(UTC)
Morning civil twilight05:2712:27
Sunrise06:0113:01
Sunset20:2703:27
Evening civil twilight21:0104:01

Current date and time
Zulu (UTC)  11-Aug-2022 08:23:58
Local (UTC-7)  11-Aug-2022 01:23:58
 
METAR
KSEA 
8nm NW 
110753Z 00000KT 10SM SCT041 16/13 A3015 RMK AO2 SLP213 T01610128 402110150
KRNT 
10nm N 
110753Z 00000KT 10SM CLR 17/14 A3014 RMK AO2 SLP210 T01720139 402220167
KPLU 
14nm S 
110755Z AUTO 00000KT 10SM OVC028 16/16 A3015 RMK AO2
KBFI 
14nm N 
110753Z 00000KT 10SM BKN048 17/13 A3015 RMK AO2 SLP208 T01720133 402170156
KTIW 
15nm W 
110753Z AUTO 00000KT 10SM CLR 16/13 A3015 RMK AO2 SLP209 T01560133 402000144
KTCM 
16nm SW 
110758Z 00000KT 7SM CLR 13/13 A3014 RMK AO2A VIS 7/8 RWY34 SLP210 T01330133 402040127 $
TAF
KSEA 
8nm NW 
110520Z 1106/1212 VRB03KT P6SM SCT030 BKN040 FM111100 36003KT P6SM BKN025 TEMPO 1112/1116 BKN007 FM111700 02003KT P6SM SCT025 SCT040 FM120000 32005KT P6SM SCT250
KBFI 
14nm N 
110520Z 1106/1206 VRB03KT P6SM OVC050 FM111100 VRB03KT P6SM SCT250 TEMPO 1112/1116 OVC010 FM111800 33004KT P6SM SCT250
KTCM 
16nm SW 
110501Z 1105/1211 VRB06KT 9999 BKN025 QNH3015INS BECMG 1109/1110 VRB06KT 9999 SCT015 OVC025 QNH3013INS BECMG 1111/1112 VRB06KT 9999 BKN015 OVC035 QNH3013INS BECMG 1118/1119 03006KT 9999 SCT025 QNH3013INS TX25/1123Z TN12/1113Z
NOTAMs
Click for the latest NOTAMs
NOTAMs are issued by the DoD/FAA and will open in a separate window not controlled by AirNav.

 

 
 

FBO, Fuel Providers, and Aircraft Ground Support

  
 Business Name 
 
 Contact 
 
 Services / Description 
 
Fuel Prices
 
Comments
  
 Cascade Helicopter Services
206-767-5290
[web site]
[email]
Cascade Helicopter Services is a comprehensive helicopter maintenance center, avionics shop, and FAA Certified Repair Station.
 
FAA-Approved Repair Station   Wireless Internet Access (WiFi)  
 
More info about Cascade Helicopter Services
independent
Jet A
FS $7.15 
 Updated 10-Aug-2022
 
   write
 Auburn Airport Administration
253-333-6821
[web site]
[email]
Airport management, Aviation fuel, Aircraft parking (ramp or tiedown), Hangar leasing / sales, Pilot school (FAR Part 141), Flight training, ...

More info about Auburn Airport Administration
Phillips 66
100LL
SS $6.95 
 Updated 03-Aug-2022
 
   write
FS=Full service
SS=Self service
Update Fuel Prices
 

Would you like to see your business listed on this page?

 If your business provides an interesting product or service to pilots, flight crews, aircraft, or users of the Auburn Municipal Airport, you should consider listing it here.  To start the listing process, click on the button below
 
Add a business
 

Other Pages about Auburn Municipal Airport

auburnmunicipalairport.com
 
Update a link
 
Copyright © AirNav, LLC. All rights reserved. Privacy Policy  Contact